NCAR-RAP Real-Time Weather Data

Output produced by METARs form (20 February 2019  18:40 UTC)
found at http://weather.rap.ucar.edu/surface/
 
 
ROAH 201830Z 22011KT 9999 -SHRA FEW010 SCT025 BKN045 23/22 Q1018 RMK 1CU010 3CU025 5SC045 A3008
 
RODN 201756Z AUTO 00000KT 10SM SCT006 SCT027 BKN055 22/21 A3010 RMK AO2 DZE1657RAB19E40DZB40E41 SLP199 P0002 60003 T02170207 10219 20206 55009 $